Time;durP1;ratioP1;P1;durP2;ratioP2;P2;SDS_P1;SDS_P2;PMS_P1;PMS_P2;Temp;Humidity;BMP_temperature;BMP_pressure;BME280_temperature;BME280_humidity;BME280_pressure;Samples;Min_cycle;Max_cycle;Signal;HPM_P1;HPM_P2
2021/06/12 00:00:06;;;;;;;6.63;6.03;;;;;;;20.51;60.92;101242.91;5039720;28;20416;-65
2021/06/12 00:02:32;;;;;;;9.03;6.83;;;;;;;20.14;62.13;101241.97;5056482;28;20460;-65
2021/06/12 00:04:57;;;;;;;7.10;6.20;;;;;;;20.08;62.50;101249.19;5059318;28;20390;-65
2021/06/12 00:07:22;;;;;;;7.17;6.57;;;;;;;20.19;62.14;101240.09;5058835;28;20478;-66
2021/06/12 00:09:48;;;;;;;6.80;6.20;;;;;;;19.91;62.79;101242.50;5049062;28;20304;-66
2021/06/12 00:12:13;;;;;;;6.63;6.03;;;;;;;20.12;62.78;101240.28;5039117;28;20189;-65
2021/06/12 00:14:38;;;;;;;7.20;6.10;;;;;;;19.85;63.19;101235.56;5047893;28;20186;-66
2021/06/12 00:17:04;;;;;;;7.27;6.00;;;;;;;20.26;62.17;101232.91;5056499;28;20231;-65
2021/06/12 00:19:29;;;;;;;7.90;6.33;;;;;;;20.13;62.34;101240.25;5052440;28;20258;-65
2021/06/12 00:21:54;;;;;;;6.43;5.83;;;;;;;19.95;62.95;101232.72;5038436;28;20453;-65
2021/06/12 00:24:19;;;;;;;6.50;5.90;;;;;;;20.00;62.85;101241.44;5038299;28;20253;-65
2021/06/12 00:26:45;;;;;;;6.97;6.37;;;;;;;19.98;63.02;101235.28;5038893;28;20190;-64
2021/06/12 00:29:11;;;;;;;6.83;6.23;;;;;;;19.96;63.00;101234.47;5039620;28;20244;-64
2021/06/12 00:31:36;;;;;;;7.00;6.40;;;;;;;20.01;62.96;101243.16;5051301;28;20622;-65
2021/06/12 00:34:02;;;;;;;7.00;6.40;;;;;;;19.91;63.31;101237.19;5058904;28;20166;-65
2021/06/12 00:36:27;;;;;;;7.27;6.60;;;;;;;19.87;63.35;101237.31;5057250;28;20208;-65
2021/06/12 00:38:52;;;;;;;7.70;7.00;;;;;;;20.14;62.45;101236.69;5058057;28;20181;-65
2021/06/12 00:41:19;;;;;;;7.60;6.90;;;;;;;20.03;62.91;101236.94;5044641;28;20213;-65
2021/06/12 00:43:44;;;;;;;6.77;6.27;;;;;;;19.91;63.49;101238.97;5038360;28;20189;-66
2021/06/12 00:46:10;;;;;;;7.70;7.00;;;;;;;20.14;62.57;101223.44;5040743;28;20713;-65
2021/06/12 00:48:36;;;;;;;8.37;7.53;;;;;;;20.09;62.65;101227.13;5058523;28;20462;-65
2021/06/12 00:51:02;;;;;;;7.50;6.90;;;;;;;20.09;62.82;101227.97;5049494;28;20182;-66
2021/06/12 00:53:42;;;;;;;8.63;7.70;;;;;;;20.33;62.08;101228.34;5037953;28;20479;-67
2021/06/12 00:56:12;;;;;;;7.00;6.30;;;;;;;19.97;63.25;101229.13;5038160;28;20178;-67
2021/06/12 00:58:42;;;;;;;9.33;7.07;;;;;;;20.02;62.93;101229.03;5037926;28;20423;-67
2021/06/12 01:01:08;;;;;;;7.50;6.90;;;;;;;20.16;62.77;101221.66;5040041;28;20470;-67
2021/06/12 01:03:35;;;;;;;8.20;7.40;;;;;;;20.28;62.19;101227.56;5037536;28;20436;-67
2021/06/12 01:06:00;;;;;;;8.13;7.37;;;;;;;20.24;62.42;101223.25;5038338;28;20442;-66
2021/06/12 01:08:25;;;;;;;7.93;7.33;;;;;;;20.11;62.98;101212.94;5038133;28;20440;-66
2021/06/12 01:10:51;;;;;;;9.50;7.13;;;;;;;20.24;62.48;101202.97;5037755;28;20181;-66
2021/06/12 01:13:25;;;;;;;8.27;7.47;;;;;;;20.48;61.74;101200.63;5039751;28;20236;-65
2021/06/12 01:16:01;;;;;;;7.73;7.07;;;;;;;20.19;62.63;101196.91;5047814;28;20515;-65
2021/06/12 01:18:31;;;;;;;9.17;7.67;;;;;;;19.98;63.12;101201.75;5056952;28;20428;-66
2021/06/12 01:21:02;;;;;;;8.00;7.30;;;;;;;20.19;62.61;101200.41;5055884;28;20776;-66
2021/06/12 01:23:59;;;;;;;7.97;7.23;;;;;;;19.95;63.26;101200.97;5038156;28;20494;-66
2021/06/12 01:26:45;;;;;;;8.73;7.83;;;;;;;20.10;63.05;101203.25;5039649;28;20882;-64
2021/06/12 01:29:21;;;;;;;12.00;8.10;;;;;;;19.99;63.65;101200.00;5051944;28;20468;-66
2021/06/12 01:31:47;;;;;;;8.13;7.43;;;;;;;19.87;64.01;101198.47;5038068;28;20458;-66
2021/06/12 01:34:13;;;;;;;9.77;8.87;;;;;;;19.84;63.91;101198.56;5047562;28;20441;-66
2021/06/12 01:36:38;;;;;;;11.10;8.60;;;;;;;20.07;63.34;101195.41;5057000;28;20397;-66
2021/06/12 01:39:04;;;;;;;12.03;10.17;;;;;;;20.07;63.27;101195.41;5055669;28;20177;-66
2021/06/12 01:41:31;;;;;;;9.03;8.23;;;;;;;19.92;63.70;101188.66;5058171;28;20219;-66
2021/06/12 01:43:58;;;;;;;11.53;10.33;;;;;;;19.93;63.90;101187.78;5049309;28;20790;-66
2021/06/12 01:46:24;;;;;;;9.43;8.47;;;;;;;19.89;64.10;101190.50;5036856;28;20457;-66
2021/06/12 01:48:50;;;;;;;10.63;8.73;;;;;;;20.12;63.50;101193.53;5023982;28;20456;-65
2021/06/12 01:51:16;;;;;;;9.67;8.80;;;;;;;20.02;63.67;101179.63;5040990;28;20410;-66
2021/06/12 01:53:42;;;;;;;8.30;7.60;;;;;;;19.85;64.40;101184.44;5041558;28;20186;-66
2021/06/12 01:56:09;;;;;;;9.00;8.10;;;;;;;20.09;63.72;101177.69;5052923;28;20427;-65
2021/06/12 01:58:37;;;;;;;9.60;8.60;;;;;;;19.73;64.67;101182.88;5061442;28;20480;-65
2021/06/12 02:01:04;;;;;;;9.17;8.27;;;;;;;19.73;64.96;101184.63;5061302;28;20417;-66
2021/06/12 02:03:31;;;;;;;8.87;8.07;;;;;;;19.61;65.45;101169.91;5058415;28;20796;-66
2021/06/12 02:05:58;;;;;;;10.17;9.23;;;;;;;19.65;65.16;101161.88;5041351;28;20419;-66
2021/06/12 02:08:24;;;;;;;9.83;8.83;;;;;;;19.43;66.30;101158.81;5040937;28;20465;-66
2021/06/12 02:10:49;;;;;;;10.03;9.13;;;;;;;19.83;64.74;101157.97;5049406;28;20751;-66
2021/06/12 02:13:21;;;;;;;9.30;8.40;;;;;;;19.82;64.67;101153.63;5060960;28;20440;-66
2021/06/12 02:15:50;;;;;;;9.30;8.40;;;;;;;19.60;65.51;101157.59;5046601;28;20323;-66
2021/06/12 02:18:17;;;;;;;10.27;9.10;;;;;;;19.62;65.74;101158.41;5044420;28;20458;-67
2021/06/12 02:20:43;;;;;;;10.73;9.63;;;;;;;19.41;66.59;101160.59;5060859;28;20639;-67
2021/06/12 02:23:09;;;;;;;10.00;9.00;;;;;;;19.37;66.63;101161.56;5061005;28;20419;-66
2021/06/12 02:25:34;;;;;;;10.67;9.57;;;;;;;19.48;66.55;101161.34;5045266;28;20320;-66
2021/06/12 02:28:11;;;;;;;10.40;9.40;;;;;;;19.57;66.07;101163.81;5041777;28;20429;-66
2021/06/12 02:30:50;;;;;;;10.43;9.20;;;;;;;19.52;66.55;101173.59;5060996;28;20189;-66
2021/06/12 02:33:17;;;;;;;11.53;10.40;;;;;;;19.63;66.03;101165.44;5060414;28;20477;-65
2021/06/12 02:35:43;;;;;;;11.50;10.40;;;;;;;19.87;65.37;101176.44;5051327;28;20427;-66
2021/06/12 02:38:09;;;;;;;10.73;9.53;;;;;;;19.68;66.16;101176.81;5039981;28;20908;-66
2021/06/12 02:40:35;;;;;;;13.60;10.73;;;;;;;19.84;65.77;101170.31;5054475;28;20185;-66
2021/06/12 02:43:00;;;;;;;10.70;9.60;;;;;;;19.89;65.73;101164.03;5061272;28;20465;-65
2021/06/12 02:45:26;;;;;;;10.80;9.70;;;;;;;19.71;66.42;101168.78;5056672;28;20201;-66
2021/06/12 02:47:55;;;;;;;11.90;10.70;;;;;;;19.74;66.88;101166.09;5040875;28;20272;-65
2021/06/12 02:50:24;;;;;;;13.57;12.27;;;;;;;19.57;67.51;101163.81;5040060;28;20263;-66
2021/06/12 02:52:52;;;;;;;13.60;12.27;;;;;;;19.97;66.21;101151.50;5039223;28;20445;-66
2021/06/12 02:55:18;;;;;;;15.13;13.63;;;;;;;19.99;66.02;101157.66;5045063;28;20456;-65
2021/06/12 02:57:47;;;;;;;13.27;12.00;;;;;;;19.84;66.69;101158.88;5039543;28;20441;-66
2021/06/12 03:00:16;;;;;;;14.27;12.97;;;;;;;19.99;66.29;101152.34;5039997;28;20185;-66
2021/06/12 03:02:42;;;;;;;16.53;13.23;;;;;;;19.99;66.22;101149.72;5038845;28;20437;-66
2021/06/12 03:05:12;;;;;;;14.27;12.87;;;;;;;19.83;66.61;101139.47;5054100;28;20752;-66
2021/06/12 03:07:38;;;;;;;15.37;13.83;;;;;;;20.00;66.38;101135.56;5040558;28;20861;-66
2021/06/12 03:10:04;;;;;;;15.53;13.90;;;;;;;19.94;66.45;101141.00;5040541;28;20477;-65
2021/06/12 03:12:30;;;;;;;17.17;15.50;;;;;;;20.10;65.77;101137.09;5040242;28;20516;-65
2021/06/12 03:14:57;;;;;;;15.80;14.30;;;;;;;19.85;67.03;101137.66;5039638;28;20265;-65
2021/06/12 03:17:23;;;;;;;16.03;14.40;;;;;;;20.02;66.42;101133.75;5038707;28;20447;-66
2021/06/12 03:19:49;;;;;;;15.30;13.90;;;;;;;20.23;65.39;101136.78;5040832;28;20437;-67
2021/06/12 03:22:14;;;;;;;15.97;14.47;;;;;;;20.17;66.03;101128.09;5038915;28;20182;-66
2021/06/12 03:24:40;;;;;;;16.77;15.10;;;;;;;20.11;66.06;101133.53;5039053;28;20234;-65
2021/06/12 03:27:06;;;;;;;15.67;14.27;;;;;;;20.06;66.32;101135.41;5059283;28;20181;-65
2021/06/12 03:29:32;;;;;;;16.60;14.90;;;;;;;20.20;66.15;101127.13;5046177;28;20525;-65
2021/06/12 03:31:58;;;;;;;17.07;15.33;;;;;;;20.22;65.69;101124.47;5038666;28;20392;-65
2021/06/12 03:34:23;;;;;;;15.77;14.37;;;;;;;20.04;66.34;101121.38;5039707;28;20190;-65
2021/06/12 03:36:49;;;;;;;17.13;15.47;;;;;;;19.86;67.03;101122.66;5042650;28;20419;-65
2021/06/12 03:39:15;;;;;;;16.23;14.07;;;;;;;19.95;66.89;101126.88;5057220;28;20203;-65
2021/06/12 03:41:40;;;;;;;17.27;14.67;;;;;;;19.81;67.33;101122.75;5065677;28;20423;-66
2021/06/12 03:44:06;;;;;;;15.63;14.03;;;;;;;20.07;66.57;101118.63;5079341;28;20433;-65
2021/06/12 03:46:32;;;;;;;17.47;15.77;;;;;;;20.19;66.80;101120.97;5079197;28;20498;-65
2021/06/12 03:48:57;;;;;;;18.97;17.00;;;;;;;20.00;68.05;101128.50;5079009;28;20538;-66
2021/06/12 03:51:23;;;;;;;19.47;17.47;;;;;;;19.82;69.01;101128.91;5052926;28;20257;-65
2021/06/12 03:53:48;;;;;;;17.00;15.20;;;;;;;19.75;68.80;101136.09;5038512;28;20194;-65
2021/06/12 03:56:16;;;;;;;15.93;13.77;;;;;;;19.73;68.68;101137.91;5042039;28;20303;-65
2021/06/12 03:58:43;;;;;;;14.33;12.97;;;;;;;19.61;69.08;101140.81;5059018;28;20181;-65
2021/06/12 04:01:14;;;;;;;13.80;12.57;;;;;;;19.64;68.96;101140.75;5051172;28;20898;-66
2021/06/12 04:03:43;;;;;;;13.57;12.27;;;;;;;19.68;68.48;101140.63;5038748;28;20459;-66
2021/06/12 04:06:09;;;;;;;13.30;12.10;;;;;;;19.59;68.22;101132.94;5038809;28;20482;-66
2021/06/12 04:08:35;;;;;;;14.50;12.40;;;;;;;19.64;68.28;101127.53;5040450;28;20452;-66
2021/06/12 04:11:00;;;;;;;14.37;12.97;;;;;;;19.47;69.01;101130.53;5038780;28;20403;-66
2021/06/12 04:13:26;;;;;;;13.93;12.63;;;;;;;19.48;68.72;101132.28;5044975;28;20316;-65
2021/06/12 04:15:51;;;;;;;14.50;13.10;;;;;;;19.89;67.91;101125.25;5058881;28;20169;-66
2021/06/12 04:18:17;;;;;;;15.53;13.60;;;;;;;19.72;68.40;101135.31;5049938;28;20551;-66
2021/06/12 04:20:42;;;;;;;14.20;12.80;;;;;;;19.53;68.64;101130.41;5038737;28;20181;-66
2021/06/12 04:23:10;;;;;;;14.20;12.87;;;;;;;19.71;67.89;101115.88;5045227;28;20539;-66
2021/06/12 04:25:36;;;;;;;14.50;13.00;;;;;;;19.71;67.60;101123.84;5048450;28;20230;-66
2021/06/12 04:28:01;;;;;;;12.53;11.43;;;;;;;19.55;67.96;101128.56;5038640;28;20436;-65
2021/06/12 04:30:27;;;;;;;13.67;12.37;;;;;;;19.45;68.09;101122.63;5038370;28;20209;-66
2021/06/12 04:32:52;;;;;;;11.90;10.80;;;;;;;19.83;66.59;101120.94;5038286;28;20189;-65
2021/06/12 04:35:17;;;;;;;13.00;11.60;;;;;;;20.14;65.37;101120.22;5047798;28;20185;-66
2021/06/12 04:37:43;;;;;;;11.50;10.40;;;;;;;19.78;66.37;101121.91;5056823;28;20253;-66
2021/06/12 04:40:10;;;;;;;11.60;10.40;;;;;;;19.77;66.01;101129.00;5058382;28;20488;-66
2021/06/12 04:42:36;;;;;;;9.70;8.90;;;;;;;19.81;66.02;101128.06;5057389;28;20437;-66
2021/06/12 04:45:01;;;;;;;19.77;17.77;;;;;;;20.23;64.65;101135.03;5050410;28;20429;-66
2021/06/12 04:47:27;;;;;;;12.93;11.63;;;;;;;20.24;64.04;101126.19;5037508;28;20174;-65
2021/06/12 04:49:52;;;;;;;15.57;12.63;;;;;;;19.99;64.77;101117.94;5038240;28;20206;-66
2021/06/12 04:52:17;;;;;;;15.97;14.30;;;;;;;20.16;64.42;101118.41;5038431;28;20179;-66
2021/06/12 04:54:43;;;;;;;13.10;11.80;;;;;;;20.17;64.71;101122.81;5038929;28;20229;-66
2021/06/12 04:57:08;;;;;;;13.47;11.77;;;;;;;20.05;65.11;101133.66;5038739;28;20186;-66
2021/06/12 04:59:33;;;;;;;15.97;12.00;;;;;;;20.05;65.04;101123.09;5051620;28;20185;-66
2021/06/12 05:01:59;;;;;;;15.43;12.37;;;;;;;20.25;64.66;101130.53;5038282;28;20180;-66
2021/06/12 05:04:24;;;;;;;15.00;13.50;;;;;;;20.00;65.53;101128.50;5037916;28;20170;-66
2021/06/12 05:06:50;;;;;;;15.40;13.83;;;;;;;19.93;66.01;101128.66;5039769;28;20239;-66
2021/06/12 05:09:15;;;;;;;15.07;13.37;;;;;;;19.83;66.29;101133.31;5037537;28;20214;-66
2021/06/12 05:11:40;;;;;;;16.10;14.40;;;;;;;20.13;65.46;101134.38;5052575;28;20193;-66
2021/06/12 05:14:05;;;;;;;16.97;15.20;;;;;;;20.45;64.10;101129.19;5058123;28;20205;-65
2021/06/12 05:16:33;;;;;;;14.83;13.20;;;;;;;20.22;65.04;101135.94;5057771;28;20276;-65
2021/06/12 05:18:59;;;;;;;14.73;13.33;;;;;;;20.03;66.33;101135.50;5057834;28;20223;-65
2021/06/12 05:21:24;;;;;;;16.73;14.37;;;;;;;19.98;66.78;101134.72;5049746;28;20425;-66
2021/06/12 05:23:49;;;;;;;16.93;14.00;;;;;;;20.39;65.54;101138.16;5041098;28;20499;-66
2021/06/12 05:26:16;;;;;;;16.27;14.57;;;;;;;19.93;66.80;101128.66;5040938;28;20268;-66
2021/06/12 05:28:41;;;;;;;15.83;14.23;;;;;;;20.19;66.03;101128.06;5042262;28;20190;-66
2021/06/12 05:31:07;;;;;;;16.40;14.93;;;;;;;20.17;66.47;101128.09;5059437;28;20523;-65
2021/06/12 05:33:33;;;;;;;17.07;15.27;;;;;;;20.03;66.96;101131.06;5062083;28;20169;-66
2021/06/12 05:36:00;;;;;;;15.50;14.00;;;;;;;20.25;65.96;101132.34;5061002;28;20437;-66
2021/06/12 05:38:25;;;;;;;16.80;15.20;;;;;;;20.32;65.87;101126.88;5041833;28;20391;-66
2021/06/12 05:40:51;;;;;;;17.47;15.80;;;;;;;20.13;66.41;101120.25;5042525;28;20432;-65
2021/06/12 05:43:16;;;;;;;16.60;14.93;;;;;;;20.29;65.79;101118.13;5041709;28;20171;-66
2021/06/12 05:45:43;;;;;;;17.13;15.30;;;;;;;20.29;65.89;101113.69;5041479;28;20166;-65
2021/06/12 05:48:09;;;;;;;19.10;15.47;;;;;;;20.52;64.50;101110.44;5041385;28;20182;-64
2021/06/12 05:50:34;;;;;;;17.07;15.33;;;;;;;20.49;65.27;101110.53;5041680;28;20537;-65
2021/06/12 05:52:59;;;;;;;17.50;15.70;;;;;;;20.56;64.82;101113.03;5041354;28;20178;-65
2021/06/12 05:55:25;;;;;;;17.13;15.43;;;;;;;20.17;66.12;101108.69;5041287;28;20271;-65
2021/06/12 05:57:50;;;;;;;16.77;14.20;;;;;;;20.35;65.67;101116.19;5044359;28;20325;-65
2021/06/12 06:00:16;;;;;;;15.57;13.83;;;;;;;20.41;65.60;101109.00;5061580;28;20589;-65
2021/06/12 06:02:41;;;;;;;16.60;14.90;;;;;;;20.51;65.16;101108.72;5058720;28;20463;-66
2021/06/12 06:05:07;;;;;;;17.10;15.30;;;;;;;20.35;65.82;101104.75;5061905;28;20387;-66
2021/06/12 06:07:33;;;;;;;19.83;17.77;;;;;;;19.98;66.98;101114.41;5061242;28;20170;-66
2021/06/12 06:09:58;;;;;;;19.80;17.10;;;;;;;20.09;67.04;101121.25;5059114;28;20209;-66
2021/06/12 06:12:23;;;;;;;19.03;17.17;;;;;;;20.06;67.15;101118.69;5043251;28;20182;-66
2021/06/12 06:14:49;;;;;;;19.50;17.43;;;;;;;20.36;66.28;101107.34;5061801;28;20242;-68
2021/06/12 06:17:14;;;;;;;20.20;18.20;;;;;;;20.44;65.74;101103.63;5050987;28;20204;-67
2021/06/12 06:19:39;;;;;;;23.43;21.13;;;;;;;20.36;65.75;101093.22;5052718;28;20429;-66
2021/06/12 06:22:05;;;;;;;22.90;20.40;;;;;;;20.41;66.03;101098.41;5054260;28;20268;-67
2021/06/12 06:24:30;;;;;;;22.47;20.20;;;;;;;20.42;65.78;101087.78;5060527;28;20231;-65
2021/06/12 06:26:55;;;;;;;20.87;18.67;;;;;;;20.51;65.55;101081.34;5061546;28;20196;-67
2021/06/12 06:29:21;;;;;;;21.07;19.07;;;;;;;20.52;64.89;101083.94;5060470;28;20205;-67
2021/06/12 06:31:46;;;;;;;23.73;20.57;;;;;;;20.98;63.51;101073.91;5046179;28;20213;-66
2021/06/12 06:34:12;;;;;;;21.07;18.97;;;;;;;20.86;63.88;101079.56;5040092;28;20180;-66
2021/06/12 06:36:38;;;;;;;25.87;23.37;;;;;;;21.16;62.78;101074.28;5039778;28;20178;-66
2021/06/12 06:39:04;;;;;;;20.70;18.60;;;;;;;20.69;63.93;101066.78;5040422;28;20799;-66
2021/06/12 06:41:29;;;;;;;23.17;20.80;;;;;;;20.97;63.67;101071.31;5040784;28;20183;-66
2021/06/12 06:43:55;;;;;;;22.90;20.53;;;;;;;21.15;63.08;101072.59;5040504;28;20269;-67
2021/06/12 06:46:20;;;;;;;22.30;20.10;;;;;;;20.62;64.15;101081.94;5040452;28;20174;-67
2021/06/12 06:48:45;;;;;;;20.50;18.43;;;;;;;20.64;64.49;101073.97;5041128;28;20241;-67
2021/06/12 06:51:11;;;;;;;21.20;19.10;;;;;;;20.70;63.66;101057.91;5040372;28;20201;-67
2021/06/12 06:53:36;;;;;;;22.23;19.97;;;;;;;20.51;64.34;101066.34;5040416;28;20174;-67
2021/06/12 06:56:03;;;;;;;22.83;20.50;;;;;;;20.46;64.70;101073.53;5041001;28;20174;-67
2021/06/12 06:58:29;;;;;;;21.03;18.90;;;;;;;20.25;65.32;101071.44;5040310;28;20202;-66
2021/06/12 07:00:55;;;;;;;21.03;18.83;;;;;;;20.59;64.19;101075.84;5040099;28;20449;-67
2021/06/12 07:03:21;;;;;;;25.10;19.53;;;;;;;20.73;63.93;101060.50;5040530;28;20508;-66
2021/06/12 07:05:46;;;;;;;21.80;19.73;;;;;;;20.75;63.84;101065.75;5040057;28;20499;-67
2021/06/12 07:08:11;;;;;;;20.97;18.83;;;;;;;20.69;63.91;101061.50;5040015;28;20236;-66
2021/06/12 07:10:37;;;;;;;20.70;18.60;;;;;;;20.77;63.45;101064.81;5040465;28;20186;-66
2021/06/12 07:13:02;;;;;;;20.07;18.17;;;;;;;20.17;64.97;101061.94;5039716;28;20189;-68
2021/06/12 07:15:28;;;;;;;20.63;18.80;;;;;;;20.76;63.42;101063.06;5039810;28;20213;-66
2021/06/12 07:17:54;;;;;;;21.33;19.23;;;;;;;20.63;64.20;101057.19;5040414;28;20170;-68
2021/06/12 07:20:19;;;;;;;22.47;19.17;;;;;;;20.82;63.74;101054.06;5039779;28;20174;-68
2021/06/12 07:22:44;;;;;;;20.87;18.77;;;;;;;20.78;64.62;101065.66;5039456;28;20541;-68
2021/06/12 07:25:10;;;;;;;25.27;19.70;;;;;;;20.69;65.36;101065.00;5039744;28;20218;-67
2021/06/12 07:27:36;;;;;;;19.73;17.63;;;;;;;20.40;65.46;101065.75;5039692;28;20179;-66
2021/06/12 07:30:02;;;;;;;19.30;17.40;;;;;;;20.02;67.68;101076.41;5055865;28;20460;-66
2021/06/12 07:32:28;;;;;;;24.97;20.80;;;;;;;20.31;68.13;101071.28;5059468;28;20627;-66
2021/06/12 07:34:53;;;;;;;20.73;18.50;;;;;;;19.83;69.43;101083.91;5059687;28;20515;-65
2021/06/12 07:37:19;;;;;;;21.73;19.10;;;;;;;20.04;69.43;101092.25;5059871;28;20181;-67
2021/06/12 07:39:44;;;;;;;16.87;15.20;;;;;;;19.69;68.75;101093.91;5059231;28;20173;-66
2021/06/12 07:42:09;;;;;;;18.80;16.63;;;;;;;20.05;68.10;101072.78;5059313;28;20551;-66
2021/06/12 07:44:35;;;;;;;20.33;17.60;;;;;;;20.24;68.33;101080.28;5059066;28;20170;-68
2021/06/12 07:47:00;;;;;;;16.83;15.03;;;;;;;19.79;68.97;101081.34;5058732;28;20208;-69
2021/06/12 07:49:26;;;;;;;16.93;15.33;;;;;;;20.38;67.25;101075.53;5059144;28;20205;-69
2021/06/12 07:51:51;;;;;;;20.90;17.67;;;;;;;20.23;68.04;101074.13;5059532;28;20231;-69
2021/06/12 07:54:17;;;;;;;15.53;14.17;;;;;;;20.31;67.79;101072.16;5058957;28;20252;-68
2021/06/12 07:56:43;;;;;;;19.40;17.40;;;;;;;20.00;68.95;101077.34;5058922;28;20170;-69
2021/06/12 07:59:08;;;;;;;18.17;16.37;;;;;;;19.72;69.17;101070.03;5059436;28;20379;-68
2021/06/12 08:01:34;;;;;;;19.93;16.90;;;;;;;19.93;69.02;101081.03;5058156;28;20211;-68
2021/06/12 08:04:00;;;;;;;17.80;16.00;;;;;;;19.67;69.79;101085.13;5058991;28;20272;-68
2021/06/12 08:06:25;;;;;;;17.07;15.47;;;;;;;19.78;70.08;101088.41;5059159;28;20165;-67
2021/06/12 08:08:51;;;;;;;17.07;15.47;;;;;;;19.83;69.97;101101.56;5058567;28;20263;-68
2021/06/12 08:11:16;;;;;;;18.20;15.40;;;;;;;19.94;68.49;101106.59;5058830;28;20184;-68
2021/06/12 08:13:41;;;;;;;15.40;14.00;;;;;;;20.07;67.89;101099.25;5059082;28;20264;-69
2021/06/12 08:16:07;;;;;;;15.20;13.60;;;;;;;19.82;68.16;101106.00;5057768;28;20255;-68
2021/06/12 08:18:33;;;;;;;14.83;13.30;;;;;;;20.06;67.39;101106.31;5058202;28;20535;-70
2021/06/12 08:20:59;;;;;;;15.30;13.13;;;;;;;19.99;67.55;101105.56;5059206;28;20180;-69
2021/06/12 08:23:24;;;;;;;13.73;12.33;;;;;;;20.24;66.15;101097.06;5058398;28;20420;-70
2021/06/12 08:25:50;;;;;;;15.60;14.00;;;;;;;20.80;64.27;101107.09;5058423;28;20542;-71
2021/06/12 08:28:15;;;;;;;13.70;12.50;;;;;;;21.26;62.28;101110.25;5059059;28;20165;-70
2021/06/12 08:30:40;;;;;;;13.53;12.20;;;;;;;21.02;63.17;101109.16;5058445;28;20287;-70
2021/06/12 08:33:07;;;;;;;15.27;13.67;;;;;;;21.24;62.46;101111.19;5058338;28;20170;-70
2021/06/12 08:35:33;;;;;;;15.10;13.70;;;;;;;20.39;64.33;101113.44;5058787;28;20162;-69
2021/06/12 08:37:58;;;;;;;13.60;12.20;;;;;;;21.21;61.83;101112.16;5057982;28;20419;-70
2021/06/12 08:40:25;;;;;;;14.13;12.77;;;;;;;21.47;60.57;101119.38;5058210;28;20424;-71
2021/06/12 08:42:51;;;;;;;13.03;11.93;;;;;;;21.59;59.84;101118.13;5057708;28;20165;-69
2021/06/12 08:45:17;;;;;;;12.73;11.50;;;;;;;21.80;58.91;101121.91;5057999;28;20420;-69
2021/06/12 08:47:43;;;;;;;11.30;10.20;;;;;;;21.79;58.29;101125.50;5057996;28;20387;-70
2021/06/12 08:50:10;;;;;;;11.50;9.93;;;;;;;22.39;56.77;101112.09;5058424;28;20451;-70
2021/06/12 08:52:36;;;;;;;18.03;9.47;;;;;;;22.91;54.17;101120.03;5057763;28;20462;-70
2021/06/12 08:55:07;;;;;;;8.80;8.00;;;;;;;22.17;56.44;101126.03;5058019;28;20404;-70
2021/06/12 08:57:32;;;;;;;8.00;6.60;;;;;;;21.55;55.98;101127.09;5058336;28;20502;-69
2021/06/12 08:59:58;;;;;;;7.43;6.73;;;;;;;22.18;54.55;101125.13;5057988;28;20427;-70
2021/06/12 09:02:23;;;;;;;8.80;7.20;;;;;;;22.02;54.86;101131.88;5057645;28;20184;-70
2021/06/12 09:04:53;;;;;;;10.03;7.33;;;;;;;21.96;55.54;101132.94;5058530;28;20188;-70
2021/06/12 09:07:28;;;;;;;7.17;6.47;;;;;;;21.70;55.23;101126.66;5057771;28;20482;-70
2021/06/12 09:09:57;;;;;;;8.30;6.70;;;;;;;21.20;56.75;101137.81;5057799;28;20455;-69
2021/06/12 09:12:47;;;;;;;7.50;6.10;;;;;;;21.80;55.11;101129.88;5057477;28;20419;-69
2021/06/12 09:15:14;;;;;;;9.00;6.50;;;;;;;22.12;52.50;101129.78;5057803;28;20434;-70
2021/06/12 09:17:42;;;;;;;8.07;6.60;;;;;;;21.95;52.23;101135.63;5056999;28;20439;-71
2021/06/12 09:20:09;;;;;;;11.27;7.37;;;;;;;23.38;48.14;101143.16;5057561;28;20416;-73
2021/06/12 09:22:35;;;;;;;7.60;5.70;;;;;;;23.71;47.73;101134.84;5057954;28;20416;-71
2021/06/12 09:25:01;;;;;;;8.63;6.20;;;;;;;24.46;46.08;101136.25;5056971;28;20459;-70
2021/06/12 09:27:26;;;;;;;8.30;5.20;;;;;;;24.29;45.20;101136.97;5057722;28;20169;-70
2021/06/12 09:29:52;;;;;;;5.60;5.10;;;;;;;23.97;46.35;101139.16;5058152;28;20194;-70
2021/06/12 09:32:20;;;;;;;6.30;5.30;;;;;;;24.11;45.18;101132.41;5057341;28;20178;-71
2021/06/12 09:34:51;;;;;;;6.97;5.13;;;;;;;23.79;45.81;101121.22;5057542;28;20416;-71
2021/06/12 09:37:22;;;;;;;6.60;5.30;;;;;;;24.43;45.29;101120.41;5056636;28;20762;-69
2021/06/12 09:40:11;;;;;;;8.60;5.20;;;;;;;25.67;41.53;101128.28;5055240;28;20419;-70
2021/06/12 09:42:42;;;;;;;6.40;5.00;;;;;;;25.82;39.98;101124.88;5051734;28;20412;-70
2021/06/12 09:45:13;;;;;;;6.33;4.93;;;;;;;26.47;40.61;101110.16;5050469;28;20424;-71
2021/06/12 09:47:38;;;;;;;6.70;4.30;;;;;;;25.21;40.83;101117.94;5054010;28;20473;-70
2021/06/12 09:50:05;;;;;;;5.07;4.53;;;;;;;25.85;39.01;101122.03;5057293;28;20550;-69
2021/06/12 09:52:42;;;;;;;7.00;3.87;;;;;;;26.34;35.88;101131.28;5057294;28;20170;-70
2021/06/12 09:55:08;;;;;;;5.93;3.47;;;;;;;26.86;34.80;101131.31;5057225;28;20809;-69
2021/06/12 09:57:46;;;;;;;4.13;3.50;;;;;;;24.61;38.44;101123.22;5057123;28;20424;-68
2021/06/12 10:00:12;;;;;;;5.13;3.87;;;;;;;23.68;39.72;101124.31;5057342;28;20423;-77
2021/06/12 10:02:40;;;;;;;11.20;4.60;;;;;;;24.77;37.93;101126.13;5056900;28;20420;-72
2021/06/12 10:05:07;;;;;;;5.83;4.40;;;;;;;24.47;38.83;101132.66;5057549;28;20448;-70
2021/06/12 10:07:33;;;;;;;6.90;4.03;;;;;;;22.83;41.24;101144.22;5057163;28;20441;-71
2021/06/12 10:10:02;;;;;;;5.17;4.07;;;;;;;22.87;42.06;101153.84;5060329;28;20873;-70
2021/06/12 10:12:28;;;;;;;5.93;4.40;;;;;;;22.27;42.07;101178.88;5061091;28;20181;-69
2021/06/12 10:14:54;;;;;;;7.50;4.10;;;;;;;22.21;42.44;101180.78;5060730;28;20416;-69
2021/06/12 10:17:21;;;;;;;5.90;4.27;;;;;;;23.18;39.75;101173.19;5060848;28;20190;-70
2021/06/12 10:19:50;;;;;;;5.10;3.50;;;;;;;22.58;40.71;101172.56;5061458;28;20408;-70
2021/06/12 10:22:16;;;;;;;7.00;3.97;;;;;;;22.62;40.31;101171.56;5059703;28;20450;-69
2021/06/12 10:24:41;;;;;;;6.90;4.33;;;;;;;22.75;40.45;101169.34;5059696;28;20468;-71
2021/06/12 10:27:07;;;;;;;20.10;15.57;;;;;;;22.49;41.27;101179.94;5060443;28;20173;-69
2021/06/12 10:29:33;;;;;;;4.20;3.60;;;;;;;22.09;44.18;101189.16;5060663;28;20247;-69
2021/06/12 10:31:59;;;;;;;6.30;3.80;;;;;;;23.11;40.06;101182.25;5059551;28;20520;-68
2021/06/12 10:34:29;;;;;;;4.80;4.00;;;;;;;22.61;41.49;101183.09;5060214;28;20530;-69
2021/06/12 10:37:12;;;;;;;6.70;4.63;;;;;;;22.38;41.17;101184.75;5060224;28;20419;-69
2021/06/12 10:39:40;;;;;;;4.77;3.77;;;;;;;21.83;41.77;101189.97;5060777;28;20434;-69
2021/06/12 10:42:19;;;;;;;5.00;3.73;;;;;;;21.63;42.04;101194.06;5060194;28;20554;-68
2021/06/12 10:44:47;;;;;;;6.63;3.73;;;;;;;22.13;41.49;101195.25;5059701;28;20465;-69
2021/06/12 10:47:13;;;;;;;6.13;3.40;;;;;;;22.60;41.17;101197.31;5060197;28;20912;-69
2021/06/12 10:49:39;;;;;;;5.87;4.43;;;;;;;22.84;40.19;101187.63;5059314;28;20594;-68
2021/06/12 10:52:06;;;;;;;5.50;3.80;;;;;;;22.74;41.17;101194.19;5060441;28;20223;-69
2021/06/12 10:54:36;;;;;;;4.97;3.80;;;;;;;23.12;40.41;101197.31;5060268;28;20170;-69
2021/06/12 10:57:10;;;;;;;4.50;3.60;;;;;;;23.80;38.71;101200.16;5059961;28;20448;-68
2021/06/12 10:59:36;;;;;;;5.30;3.40;;;;;;;22.68;41.25;101195.28;5060256;28;20490;-69
2021/06/12 11:02:09;;;;;;;6.30;4.00;;;;;;;23.07;40.47;101194.81;5059983;28;20801;-67
2021/06/12 11:05:14;;;;;;;7.70;3.67;;;;;;;23.43;39.17;101189.09;5059968;28;20166;-68
2021/06/12 11:07:43;;;;;;;4.50;3.80;;;;;;;24.35;37.94;101189.13;5059187;28;20805;-69
2021/06/12 11:10:11;;;;;;;5.40;4.53;;;;;;;23.89;39.05;101191.84;5059709;28;20463;-67
2021/06/12 11:12:37;;;;;;;5.07;3.80;;;;;;;24.52;37.61;101191.97;5059680;28;20647;-68
2021/06/12 11:15:06;;;;;;;5.60;4.30;;;;;;;23.47;40.33;101196.03;5060170;28;20407;-70